createdAt,value
2023-02-04T00:00:15.996Z,4.70
2023-02-04T00:02:43.352Z,4.32
2023-02-04T00:05:14.474Z,5.25
2023-02-04T00:07:41.808Z,4.78
2023-02-04T00:10:10.318Z,6.65
2023-02-04T00:12:37.543Z,5.38
2023-02-04T00:15:05.483Z,5.28
2023-02-04T00:17:32.670Z,4.25
2023-02-04T00:19:59.861Z,4.30
2023-02-04T00:22:29.230Z,5.07
2023-02-04T00:24:56.667Z,4.78
2023-02-04T00:27:24.058Z,4.88
2023-02-04T00:29:51.278Z,4.85
2023-02-04T00:32:18.639Z,5.18
2023-02-04T00:34:45.908Z,5.05
2023-02-04T00:37:13.057Z,4.18
2023-02-04T00:39:40.401Z,4.07
2023-02-04T00:42:08.180Z,5.03
2023-02-04T00:44:37.176Z,4.47
2023-02-04T00:47:05.095Z,3.72
2023-02-04T00:49:34.764Z,3.85
2023-02-04T00:52:02.350Z,3.72
2023-02-04T00:54:29.970Z,3.45
2023-02-04T00:56:57.176Z,3.70
2023-02-04T00:59:24.911Z,3.80
2023-02-04T01:01:52.209Z,4.47
2023-02-04T01:04:19.854Z,3.28
2023-02-04T01:06:47.318Z,3.00
2023-02-04T01:09:14.532Z,2.92
2023-02-04T01:11:42.917Z,2.90
2023-02-04T01:14:10.515Z,2.67
2023-02-04T01:16:39.794Z,2.30
2023-02-04T01:19:07.187Z,2.30
2023-02-04T01:21:34.450Z,2.75
2023-02-04T01:24:01.834Z,3.10
2023-02-04T01:26:29.130Z,2.03
2023-02-04T01:28:56.473Z,2.25
2023-02-04T01:31:25.444Z,2.08
2023-02-04T01:33:52.839Z,1.90
2023-02-04T01:36:21.913Z,1.88
2023-02-04T01:38:50.203Z,1.83
2023-02-04T01:41:18.672Z,1.58
2023-02-04T01:43:49.135Z,1.75
2023-02-04T01:46:17.148Z,2.20
2023-02-04T01:48:46.858Z,2.20
2023-02-04T01:51:16.770Z,2.38
2023-02-04T01:53:48.350Z,2.35
2023-02-04T01:56:21.549Z,2.15
2023-02-04T01:58:50.077Z,2.30
2023-02-04T02:01:44.211Z,2.38
2023-02-04T02:04:18.109Z,2.00
2023-02-04T02:06:58.733Z,1.73
2023-02-04T02:09:29.056Z,1.33
2023-02-04T02:11:56.613Z,2.28
2023-02-04T02:14:24.074Z,1.63
2023-02-04T02:16:51.382Z,1.77
2023-02-04T02:19:28.812Z,1.75
2023-02-04T02:22:05.223Z,1.42
2023-02-04T02:24:34.978Z,1.40
2023-02-04T02:27:05.665Z,1.65
2023-02-04T02:29:33.187Z,1.52
2023-02-04T02:32:00.744Z,2.53
2023-02-04T02:34:30.349Z,1.20
2023-02-04T02:36:59.359Z,1.50
2023-02-04T02:39:27.043Z,1.50
2023-02-04T02:41:56.506Z,1.52
2023-02-04T02:44:25.042Z,1.00
2023-02-04T02:46:53.857Z,2.00
2023-02-04T02:49:22.613Z,1.10
2023-02-04T02:51:50.041Z,1.27
2023-02-04T02:54:29.725Z,1.55
2023-02-04T02:57:00.591Z,1.30
2023-02-04T02:59:28.154Z,1.33
2023-02-04T03:02:00.521Z,1.92
2023-02-04T03:04:31.841Z,1.33
2023-02-04T03:06:59.582Z,1.38
2023-02-04T03:09:28.127Z,1.45
2023-02-04T03:11:55.527Z,1.33
2023-02-04T03:14:25.447Z,1.83
2023-02-04T03:16:54.521Z,1.77
2023-02-04T03:19:24.239Z,1.67
2023-02-04T03:21:51.832Z,1.33
2023-02-04T03:24:19.251Z,1.63
2023-02-04T03:26:46.608Z,1.13
2023-02-04T03:29:14.381Z,1.35
2023-02-04T03:31:41.790Z,1.60
2023-02-04T03:34:09.152Z,1.45
2023-02-04T03:36:36.762Z,1.30
2023-02-04T03:39:04.549Z,1.70
2023-02-04T03:41:31.771Z,1.05
2023-02-04T03:43:59.006Z,1.20
2023-02-04T03:46:27.538Z,1.40
2023-02-04T03:48:54.765Z,1.40
2023-02-04T03:51:22.038Z,1.55
2023-02-04T03:53:49.221Z,1.50
2023-02-04T03:56:16.585Z,1.38
2023-02-04T03:58:44.051Z,1.67
2023-02-04T04:01:11.272Z,1.95
2023-02-04T04:03:38.521Z,1.90
2023-02-04T04:06:08.734Z,1.90
2023-02-04T04:08:36.770Z,1.60
2023-02-04T04:11:04.196Z,1.90
2023-02-04T04:13:31.417Z,1.60
2023-02-04T04:15:58.804Z,1.73
2023-02-04T04:18:26.081Z,1.80
2023-02-04T04:20:53.333Z,2.05
2023-02-04T04:23:20.583Z,2.17
2023-02-04T04:25:47.881Z,2.15
2023-02-04T04:28:15.437Z,2.30
2023-02-04T04:30:42.912Z,2.17
2023-02-04T04:33:10.186Z,2.20
2023-02-04T04:35:37.410Z,2.60
2023-02-04T04:38:04.972Z,2.00
2023-02-04T04:40:32.404Z,2.28
2023-02-04T04:42:59.762Z,2.30
2023-02-04T04:45:27.072Z,2.38
2023-02-04T04:47:55.109Z,2.08
2023-02-04T04:50:22.381Z,1.70
2023-02-04T04:52:49.585Z,2.05
2023-02-04T04:55:17.038Z,2.45
2023-02-04T04:57:44.237Z,1.67
2023-02-04T05:00:17.072Z,1.73
2023-02-04T05:02:44.326Z,1.60
2023-02-04T05:05:12.666Z,1.70
2023-02-04T05:07:40.021Z,2.83
2023-02-04T05:10:08.783Z,1.92
2023-02-04T05:12:35.997Z,2.05
2023-02-04T05:15:03.733Z,1.60
2023-02-04T05:17:31.301Z,1.85
2023-02-04T05:19:58.541Z,2.42
2023-02-04T05:22:25.690Z,2.08
2023-02-04T05:24:52.960Z,2.22
2023-02-04T05:27:20.198Z,2.10
2023-02-04T05:29:47.382Z,1.02
2023-02-04T05:32:14.662Z,1.02
2023-02-04T05:34:41.860Z,1.15
2023-02-04T05:37:09.026Z,1.30
2023-02-04T05:39:36.266Z,1.40
2023-02-04T05:42:03.550Z,1.70
2023-02-04T05:44:30.759Z,2.10
2023-02-04T05:46:58.000Z,2.20
2023-02-04T05:49:25.154Z,1.73
2023-02-04T05:51:52.349Z,2.10
2023-02-04T05:54:20.619Z,2.03
2023-02-04T05:56:48.130Z,2.30
2023-02-04T05:59:15.585Z,1.88
2023-02-04T06:01:42.859Z,1.90
2023-02-04T06:04:10.677Z,1.77
2023-02-04T06:06:38.180Z,2.40
2023-02-04T06:09:05.604Z,1.60
2023-02-04T06:11:32.892Z,1.65
2023-02-04T06:14:00.904Z,1.90
2023-02-04T06:16:28.663Z,2.03
2023-02-04T06:18:55.983Z,1.88
2023-02-04T06:21:23.528Z,1.70
2023-02-04T06:23:50.794Z,1.83
2023-02-04T06:26:18.249Z,1.23
2023-02-04T06:28:45.493Z,2.10
2023-02-04T06:31:12.868Z,1.80
2023-02-04T06:33:40.224Z,1.85
2023-02-04T06:36:07.665Z,2.30
2023-02-04T06:38:34.813Z,1.83
2023-02-04T06:41:02.214Z,2.70
2023-02-04T06:43:29.424Z,1.85
2023-02-04T06:45:56.701Z,2.70
2023-02-04T06:48:24.358Z,2.60
2023-02-04T06:50:51.684Z,1.60
2023-02-04T06:53:18.880Z,1.30
2023-02-04T06:55:46.296Z,1.88
2023-02-04T06:58:13.490Z,2.00
2023-02-04T07:00:40.760Z,2.08
2023-02-04T07:03:08.012Z,2.30
2023-02-04T07:05:35.336Z,2.45
2023-02-04T07:08:02.657Z,2.70
2023-02-04T07:10:30.304Z,2.05
2023-02-04T07:12:57.680Z,2.35
2023-02-04T07:15:25.285Z,2.30
2023-02-04T07:17:52.661Z,2.15
2023-02-04T07:20:20.015Z,1.77
2023-02-04T07:22:47.337Z,2.47
2023-02-04T07:25:18.077Z,2.20
2023-02-04T07:27:46.785Z,2.03
2023-02-04T07:30:20.305Z,2.33
2023-02-04T07:32:47.688Z,1.83
2023-02-04T07:35:15.113Z,2.13
2023-02-04T07:37:42.345Z,2.05
2023-02-04T07:40:11.874Z,2.55
2023-02-04T07:42:40.288Z,2.30
2023-02-04T07:45:12.406Z,2.35
2023-02-04T07:47:39.638Z,1.63
2023-02-04T07:50:07.081Z,2.10
2023-02-04T07:52:34.254Z,2.05
2023-02-04T07:55:01.452Z,2.00
2023-02-04T07:57:30.382Z,2.42
2023-02-04T07:59:57.634Z,2.10
2023-02-04T08:02:25.557Z,2.22
2023-02-04T08:04:52.941Z,2.08
2023-02-04T08:07:20.150Z,2.20
2023-02-04T08:09:47.389Z,2.20
2023-02-04T08:12:14.603Z,1.70
2023-02-04T08:14:41.786Z,2.00
2023-02-04T08:17:08.957Z,2.40
2023-02-04T08:19:36.188Z,2.25
2023-02-04T08:22:03.369Z,2.42
2023-02-04T08:24:30.668Z,2.50
2023-02-04T08:26:58.993Z,3.13
2023-02-04T08:29:26.210Z,4.25
2023-02-04T08:31:53.492Z,4.53
2023-02-04T08:34:21.077Z,4.63
2023-02-04T08:36:48.680Z,4.57
2023-02-04T08:39:16.018Z,5.28
2023-02-04T08:41:43.222Z,4.57
2023-02-04T08:44:10.497Z,10.85
2023-02-04T08:46:37.765Z,5.55
2023-02-04T08:49:05.469Z,3.60
2023-02-04T08:51:32.803Z,2.83
2023-02-04T08:54:00.115Z,3.50
2023-02-04T08:56:27.278Z,3.28
2023-02-04T08:58:54.455Z,3.90
2023-02-04T09:01:21.685Z,2.75
2023-02-04T09:03:48.894Z,3.17
2023-02-04T09:06:16.306Z,3.30
2023-02-04T09:08:43.474Z,3.05
2023-02-04T09:11:12.384Z,3.45
2023-02-04T09:13:39.770Z,2.60
2023-02-04T09:16:07.222Z,2.05
2023-02-04T09:18:34.744Z,2.20
2023-02-04T09:21:02.341Z,1.25
2023-02-04T09:23:30.291Z,1.20
2023-02-04T09:25:57.493Z,0.90
2023-02-04T09:28:24.957Z,1.02
2023-02-04T09:30:52.136Z,0.65
2023-02-04T09:33:19.536Z,0.80
2023-02-04T09:35:46.807Z,0.98
2023-02-04T09:38:15.440Z,0.93
2023-02-04T09:40:47.695Z,1.35
2023-02-04T09:43:26.398Z,1.73
2023-02-04T09:45:54.887Z,1.20
2023-02-04T09:48:23.459Z,2.10
2023-02-04T09:51:04.647Z,1.10
2023-02-04T09:53:32.812Z,1.25
2023-02-04T09:56:00.063Z,1.33
2023-02-04T09:58:31.118Z,1.50
2023-02-04T10:01:19.488Z,1.35
2023-02-04T10:03:49.085Z,1.30
2023-02-04T10:06:21.613Z,1.33
2023-02-04T10:08:50.730Z,1.30
2023-02-04T10:11:20.850Z,1.25
2023-02-04T10:13:54.173Z,1.08
2023-02-04T10:16:30.238Z,1.08
2023-02-04T10:19:06.622Z,1.10
2023-02-04T10:21:38.434Z,1.50
2023-02-04T10:24:12.888Z,1.58
2023-02-04T10:26:40.127Z,1.60
2023-02-04T10:29:14.121Z,1.73
2023-02-04T10:31:47.017Z,1.50
2023-02-04T10:34:23.055Z,1.10
2023-02-04T10:36:52.836Z,1.65
2023-02-04T10:39:28.251Z,1.77
2023-02-04T10:42:00.849Z,1.50
2023-02-04T10:44:33.499Z,4.40
2023-02-04T10:47:06.771Z,1.73
2023-02-04T10:49:34.952Z,1.40
2023-02-04T10:52:07.621Z,1.85
2023-02-04T10:54:39.005Z,1.52
2023-02-04T10:57:17.426Z,1.50
2023-02-04T10:59:46.443Z,1.70
2023-02-04T11:02:42.066Z,1.80
2023-02-04T11:05:16.444Z,1.60
2023-02-04T11:10:18.508Z,2.40
2023-02-04T11:12:47.995Z,3.42
2023-02-04T11:15:38.927Z,3.45
2023-02-04T11:18:10.212Z,3.63
2023-02-04T11:20:40.064Z,4.10
2023-02-04T11:23:17.951Z,4.18
2023-02-04T11:25:45.214Z,3.35
2023-02-04T11:28:26.333Z,3.85
2023-02-04T11:31:04.014Z,3.60
2023-02-04T11:33:39.893Z,4.20
2023-02-04T11:36:10.069Z,3.83
2023-02-04T11:38:38.687Z,4.60
2023-02-04T11:41:06.556Z,4.55
2023-02-04T11:43:35.520Z,4.82
2023-02-04T11:46:16.720Z,4.70
2023-02-04T11:48:44.542Z,4.28
2023-02-04T11:51:14.824Z,4.68
2023-02-04T11:53:42.649Z,4.82
2023-02-04T11:56:21.178Z,4.25
2023-02-04T11:58:50.069Z,4.43
2023-02-04T12:01:19.365Z,4.15
2023-02-04T12:03:49.632Z,4.40
2023-02-04T12:06:25.392Z,5.65
2023-02-04T12:08:52.920Z,4.72
2023-02-04T12:11:32.797Z,4.53
2023-02-04T12:14:08.180Z,4.40
2023-02-04T12:16:46.093Z,4.82
2023-02-04T12:19:14.091Z,4.85
2023-02-04T12:21:41.437Z,5.30
2023-02-04T12:24:08.900Z,4.05
2023-02-04T12:26:36.241Z,4.10
2023-02-04T12:29:05.720Z,4.43
2023-02-04T12:31:34.123Z,4.45
2023-02-04T12:34:01.437Z,4.30
2023-02-04T12:36:29.878Z,4.30
2023-02-04T12:39:00.307Z,4.10
2023-02-04T12:41:28.440Z,4.32
2023-02-04T12:43:55.824Z,3.95
2023-02-04T12:46:23.520Z,3.10
2023-02-04T12:48:50.838Z,4.38
2023-02-04T12:51:18.254Z,3.78
2023-02-04T12:53:45.513Z,3.70
2023-02-04T12:56:12.704Z,4.05
2023-02-04T12:58:40.246Z,4.00
2023-02-04T13:01:07.614Z,4.53
2023-02-04T13:03:35.221Z,4.90
2023-02-04T13:06:02.525Z,4.85
2023-02-04T13:08:29.916Z,4.70
2023-02-04T13:10:57.168Z,5.28
2023-02-04T13:13:24.525Z,5.47
2023-02-04T13:15:51.748Z,5.15
2023-02-04T13:18:19.036Z,5.20
2023-02-04T13:20:46.328Z,5.75
2023-02-04T13:23:14.254Z,5.40
2023-02-04T13:25:41.686Z,5.28
2023-02-04T13:28:08.939Z,5.28
2023-02-04T13:30:36.193Z,5.45
2023-02-04T13:33:03.642Z,5.53
2023-02-04T13:35:31.243Z,5.95
2023-02-04T13:37:58.702Z,4.72
2023-02-04T13:40:25.997Z,5.13
2023-02-04T13:42:53.269Z,4.82
2023-02-04T13:45:20.482Z,4.65
2023-02-04T13:47:49.017Z,5.35
2023-02-04T13:50:19.074Z,4.70
2023-02-04T13:52:46.337Z,4.60
2023-02-04T13:55:13.640Z,4.18
2023-02-04T13:57:40.816Z,4.55
2023-02-04T14:00:09.295Z,5.05
2023-02-04T14:02:43.002Z,4.65
2023-02-04T14:05:10.471Z,6.78
2023-02-04T14:07:37.695Z,5.82
2023-02-04T14:10:05.481Z,4.05
2023-02-04T14:12:32.906Z,4.10
2023-02-04T14:15:00.209Z,3.90
2023-02-04T14:17:27.650Z,3.67
2023-02-04T14:19:54.891Z,3.67
2023-02-04T14:22:22.171Z,3.20
2023-02-04T14:24:50.364Z,3.65
2023-02-04T14:27:17.753Z,3.22
2023-02-04T14:29:44.911Z,2.97
2023-02-04T14:32:12.134Z,3.17
2023-02-04T14:34:39.351Z,3.35
2023-02-04T14:37:06.675Z,3.45
2023-02-04T14:39:33.946Z,3.30
2023-02-04T14:42:04.625Z,3.72
2023-02-04T14:44:32.469Z,3.60
2023-02-04T14:46:59.724Z,3.35
2023-02-04T14:49:26.925Z,4.68
2023-02-04T14:51:54.981Z,4.05
2023-02-04T14:54:22.234Z,4.28
2023-02-04T14:56:50.477Z,3.85
2023-02-04T14:59:17.817Z,2.50
2023-02-04T15:01:46.300Z,3.33
2023-02-04T15:04:14.016Z,2.45
2023-02-04T15:06:41.426Z,2.38
2023-02-04T15:09:08.710Z,2.25
2023-02-04T15:11:35.872Z,2.53
2023-02-04T15:14:03.337Z,2.22
2023-02-04T15:16:31.141Z,2.38
2023-02-04T15:18:58.723Z,1.90
2023-02-04T15:21:25.982Z,2.13
2023-02-04T15:23:53.240Z,2.20
2023-02-04T15:26:20.540Z,2.17
2023-02-04T15:28:47.818Z,2.25
2023-02-04T15:31:15.290Z,2.95
2023-02-04T15:33:42.763Z,2.85
2023-02-04T15:36:10.142Z,2.20
2023-02-04T15:38:37.413Z,3.55
2023-02-04T15:41:05.879Z,3.30
2023-02-04T15:43:33.156Z,3.03
2023-02-04T15:46:00.675Z,2.42
2023-02-04T15:48:28.383Z,2.85
2023-02-04T15:50:56.135Z,3.45
2023-02-04T15:53:23.757Z,3.55
2023-02-04T15:55:50.994Z,5.10
2023-02-04T15:58:18.292Z,2.60
2023-02-04T16:00:45.555Z,2.13
2023-02-04T16:03:12.763Z,2.80
2023-02-04T16:05:40.106Z,2.72
2023-02-04T16:08:07.490Z,3.40
2023-02-04T16:10:35.339Z,2.05
2023-02-04T16:13:02.762Z,2.67
2023-02-04T16:15:30.218Z,3.03
2023-02-04T16:17:57.619Z,2.85
2023-02-04T16:20:26.287Z,4.32
2023-02-04T16:22:53.567Z,3.90
2023-02-04T16:25:21.855Z,2.50
2023-02-04T16:27:49.580Z,2.92
2023-02-04T16:30:17.244Z,3.00
2023-02-04T16:32:44.562Z,2.70
2023-02-04T16:35:11.767Z,2.80
2023-02-04T16:37:39.075Z,2.92
2023-02-04T16:40:07.286Z,2.28
2023-02-04T16:42:34.496Z,2.70
2023-02-04T16:45:01.682Z,2.60
2023-02-04T16:47:29.254Z,2.40
2023-02-04T16:50:00.849Z,2.72
2023-02-04T16:52:28.975Z,2.22
2023-02-04T16:54:56.174Z,3.20
2023-02-04T16:57:23.434Z,2.88
2023-02-04T16:59:50.940Z,2.13
2023-02-04T17:02:18.233Z,2.35
2023-02-04T17:04:45.396Z,2.38
2023-02-04T17:07:12.575Z,2.75
2023-02-04T17:09:39.893Z,2.15
2023-02-04T17:12:07.460Z,2.72
2023-02-04T17:14:35.492Z,1.70
2023-02-04T17:17:03.425Z,1.80
2023-02-04T17:19:30.705Z,1.58
2023-02-04T17:21:59.156Z,1.73
2023-02-04T17:24:26.731Z,2.22
2023-02-04T17:26:53.918Z,2.10
2023-02-04T17:29:23.219Z,1.95
2023-02-04T17:31:52.768Z,2.35
2023-02-04T17:34:20.018Z,2.45
2023-02-04T17:36:47.256Z,1.88
2023-02-04T17:39:14.461Z,2.85
2023-02-04T17:41:41.773Z,2.22
2023-02-04T17:44:09.924Z,2.13
2023-02-04T17:46:37.348Z,3.08
2023-02-04T17:49:04.570Z,2.53
2023-02-04T17:51:31.821Z,2.60
2023-02-04T17:53:59.070Z,2.33
2023-02-04T17:56:26.373Z,2.15
2023-02-04T17:58:56.294Z,1.90
2023-02-04T18:01:25.314Z,2.50
2023-02-04T18:03:52.689Z,2.22
2023-02-04T18:06:22.797Z,2.15
2023-02-04T18:08:51.502Z,2.13
2023-02-04T18:11:27.879Z,3.05
2023-02-04T18:14:00.641Z,2.55
2023-02-04T18:16:30.910Z,2.50
2023-02-04T18:19:09.340Z,2.38
2023-02-04T18:21:38.229Z,2.33
2023-02-04T18:24:20.962Z,2.42
2023-02-04T18:26:51.028Z,2.20
2023-02-04T18:29:27.761Z,2.67
2023-02-04T18:32:19.657Z,2.58
2023-02-04T18:34:49.101Z,2.40
2023-02-04T18:37:35.728Z,2.60
2023-02-04T18:40:08.960Z,2.25
2023-02-04T18:42:42.087Z,2.30
2023-02-04T18:45:30.267Z,2.60
2023-02-04T18:48:20.947Z,2.20
2023-02-04T18:50:50.532Z,2.42
2023-02-04T18:53:26.743Z,2.50
2023-02-04T18:56:00.620Z,3.00
2023-02-04T18:58:35.163Z,2.85
2023-02-04T19:01:08.249Z,2.90
2023-02-04T19:03:45.528Z,2.67
2023-02-04T19:06:40.152Z,2.70
2023-02-04T19:09:13.527Z,2.90
2023-02-04T19:11:55.452Z,1.90
2023-02-04T19:14:22.539Z,2.80
2023-02-04T19:16:58.411Z,3.13
2023-02-04T19:19:38.491Z,2.83
2023-02-04T19:22:19.004Z,2.80
2023-02-04T19:24:55.856Z,3.15
2023-02-04T19:27:33.305Z,2.47
2023-02-04T19:30:26.528Z,2.47
2023-02-04T19:32:58.302Z,2.63
2023-02-04T19:35:28.847Z,3.05
2023-02-04T19:37:57.384Z,2.55
2023-02-04T19:40:34.631Z,2.70
2023-02-04T19:43:22.519Z,2.78
2023-02-04T19:45:51.790Z,2.75
2023-02-04T19:48:26.334Z,3.28
2023-02-04T19:50:54.291Z,2.60
2023-02-04T19:53:27.265Z,2.70
2023-02-04T19:55:55.282Z,2.97
2023-02-04T19:58:44.263Z,3.15
2023-02-04T20:01:18.058Z,2.50
2023-02-04T20:03:47.804Z,2.90
2023-02-04T20:06:30.201Z,3.53
2023-02-04T20:09:15.749Z,2.67
2023-02-04T20:12:08.781Z,2.63
2023-02-04T20:14:49.410Z,2.60
2023-02-04T20:17:23.410Z,2.60
2023-02-04T20:19:51.036Z,4.05
2023-02-04T20:22:18.427Z,3.70
2023-02-04T20:24:47.959Z,3.00
2023-02-04T20:27:20.233Z,2.65
2023-02-04T20:29:48.513Z,2.30
2023-02-04T20:32:27.029Z,3.25
2023-02-04T20:35:20.092Z,3.20
2023-02-04T20:37:53.452Z,2.88
2023-02-04T20:40:23.651Z,2.40
2023-02-04T20:42:52.991Z,2.40
2023-02-04T20:45:29.067Z,2.42
2023-02-04T20:48:10.279Z,2.78
2023-02-04T20:50:52.291Z,2.35
2023-02-04T20:53:28.156Z,1.88
2023-02-04T20:56:03.656Z,2.55
2023-02-04T20:58:41.505Z,2.40
2023-02-04T21:01:34.674Z,3.03
2023-02-04T21:04:36.746Z,2.50
2023-02-04T21:07:13.406Z,2.40
2023-02-04T21:09:40.890Z,2.40
2023-02-04T21:12:08.318Z,2.13
2023-02-04T21:14:35.974Z,2.20
2023-02-04T21:17:04.936Z,2.75
2023-02-04T21:19:34.013Z,2.20
2023-02-04T21:22:01.740Z,2.35
2023-02-04T21:24:32.018Z,2.20
2023-02-04T21:26:59.747Z,1.83
2023-02-04T21:29:27.257Z,2.17
2023-02-04T21:31:54.894Z,2.35
2023-02-04T21:34:22.279Z,1.90
2023-02-04T21:36:50.413Z,2.05
2023-02-04T21:39:18.081Z,2.10
2023-02-04T21:42:10.197Z,1.90
2023-02-04T21:44:38.535Z,2.50
2023-02-04T21:47:06.119Z,2.35
2023-02-04T21:49:33.556Z,2.28
2023-02-04T21:52:00.887Z,1.98
2023-02-04T21:54:28.353Z,2.38
2023-02-04T21:57:02.064Z,1.80
2023-02-04T21:59:29.967Z,1.45
2023-02-04T22:01:58.038Z,1.75
2023-02-04T22:04:25.379Z,2.20
2023-02-04T22:06:52.878Z,1.83
2023-02-04T22:09:20.398Z,1.77
2023-02-04T22:11:48.706Z,1.60
2023-02-04T22:14:34.523Z,1.60
2023-02-04T22:17:01.943Z,1.80
2023-02-04T22:19:29.276Z,1.67
2023-02-04T22:21:56.506Z,1.70
2023-02-04T22:24:23.858Z,2.17
2023-02-04T22:26:51.882Z,1.48
2023-02-04T22:29:23.535Z,1.70
2023-02-04T22:31:51.305Z,2.22
2023-02-04T22:34:18.665Z,1.73
2023-02-04T22:36:45.952Z,2.45
2023-02-04T22:39:13.197Z,1.77
2023-02-04T22:41:40.583Z,1.90
2023-02-04T22:44:08.212Z,2.03
2023-02-04T22:46:36.818Z,2.13
2023-02-04T22:49:05.987Z,2.00
2023-02-04T22:51:33.821Z,1.90
2023-02-04T22:54:03.942Z,2.05
2023-02-04T22:56:31.629Z,2.05
2023-02-04T22:58:58.785Z,2.05
2023-02-04T23:01:26.109Z,1.58
2023-02-04T23:03:53.473Z,2.00
2023-02-04T23:06:22.707Z,2.20
2023-02-04T23:08:50.405Z,2.10
2023-02-04T23:11:18.656Z,1.80
2023-02-04T23:13:46.662Z,2.38
2023-02-04T23:16:13.970Z,2.30
2023-02-04T23:18:41.243Z,2.13
2023-02-04T23:21:10.329Z,2.10
2023-02-04T23:23:37.802Z,1.70
2023-02-04T23:26:05.931Z,2.17
2023-02-04T23:28:33.218Z,1.70
2023-02-04T23:31:00.473Z,1.70
2023-02-04T23:33:27.836Z,1.83
2023-02-04T23:35:55.182Z,1.65
2023-02-04T23:38:22.500Z,1.85
2023-02-04T23:40:49.961Z,2.10
2023-02-04T23:43:17.213Z,1.83
2023-02-04T23:45:46.024Z,2.20
2023-02-04T23:48:13.357Z,1.95
2023-02-04T23:50:41.741Z,2.10
2023-02-04T23:53:08.931Z,2.35
2023-02-04T23:55:36.493Z,2.03
2023-02-04T23:58:03.825Z,2.10
